createdAt,value
2023-03-26T00:01:05.870Z,8.63
2023-03-26T00:03:33.729Z,8.62
2023-03-26T00:06:05.127Z,8.61
2023-03-26T00:08:32.402Z,8.63
2023-03-26T00:11:00.628Z,8.65
2023-03-26T00:13:29.192Z,8.64
2023-03-26T00:15:55.973Z,8.65
2023-03-26T00:18:30.126Z,8.61
2023-03-26T00:20:58.602Z,8.60
2023-03-26T00:23:27.053Z,8.61
2023-03-26T00:25:54.797Z,8.62
2023-03-26T00:28:23.569Z,8.60
2023-03-26T00:30:57.080Z,8.59
2023-03-26T00:33:24.045Z,8.57
2023-03-26T00:35:59.145Z,8.58
2023-03-26T00:38:27.427Z,8.59
2023-03-26T00:40:54.896Z,8.60
2023-03-26T00:43:22.908Z,8.60
2023-03-26T00:45:52.277Z,8.60
2023-03-26T00:48:19.120Z,8.60
2023-03-26T00:50:47.392Z,8.60
2023-03-26T00:53:15.734Z,8.59
2023-03-26T00:55:44.874Z,8.59
2023-03-26T00:58:12.901Z,8.56
2023-03-26T01:00:50.905Z,8.57
2023-03-26T01:03:27.774Z,8.58
2023-03-26T01:06:04.917Z,8.60
2023-03-26T01:08:35.392Z,8.60
2023-03-26T01:11:07.449Z,8.62
2023-03-26T01:13:38.148Z,8.62
2023-03-26T01:16:20.364Z,8.61
2023-03-26T01:18:48.753Z,8.62
2023-03-26T01:21:22.773Z,8.63
2023-03-26T01:24:09.755Z,8.64
2023-03-26T01:26:52.794Z,8.66
2023-03-26T01:29:39.302Z,8.65
2023-03-26T01:32:24.404Z,8.65
2023-03-26T01:35:13.173Z,8.67
2023-03-26T01:38:10.889Z,8.67
2023-03-26T01:41:03.135Z,8.67
2023-03-26T01:43:51.113Z,8.68
2023-03-26T01:46:19.497Z,8.68
2023-03-26T01:48:47.391Z,8.68
2023-03-26T01:51:25.678Z,8.68
2023-03-26T01:53:53.863Z,8.69
2023-03-26T01:56:35.629Z,8.68
2023-03-26T01:59:17.098Z,8.68
2023-03-26T02:01:55.906Z,8.69
2023-03-26T02:04:36.233Z,8.70
2023-03-26T02:07:09.331Z,8.70
2023-03-26T02:09:47.174Z,8.70
2023-03-26T02:12:14.832Z,8.70
2023-03-26T02:14:43.080Z,8.70
2023-03-26T02:17:11.200Z,8.69
2023-03-26T02:19:42.349Z,8.70
2023-03-26T02:22:11.386Z,8.68
2023-03-26T02:24:38.686Z,8.67
2023-03-26T02:27:10.030Z,8.66
2023-03-26T02:29:38.210Z,8.65
2023-03-26T02:32:08.629Z,8.63
2023-03-26T02:34:36.890Z,8.60
2023-03-26T02:37:03.608Z,8.60
2023-03-26T02:39:30.184Z,8.60
2023-03-26T02:41:56.821Z,8.60
2023-03-26T02:44:23.527Z,8.61
2023-03-26T02:46:50.367Z,8.59
2023-03-26T02:49:17.661Z,8.57
2023-03-26T02:51:44.531Z,8.58
2023-03-26T02:54:11.069Z,8.56
2023-03-26T02:56:37.971Z,8.54
2023-03-26T02:59:04.647Z,8.54
2023-03-26T03:01:35.105Z,8.53
2023-03-26T03:04:04.350Z,8.52
2023-03-26T03:06:32.470Z,8.51
2023-03-26T03:09:02.656Z,8.51
2023-03-26T03:11:29.262Z,8.51
2023-03-26T03:13:56.186Z,8.49
2023-03-26T03:16:23.293Z,8.48
2023-03-26T03:18:54.693Z,8.47
2023-03-26T03:21:21.921Z,8.48
2023-03-26T03:23:48.581Z,8.48
2023-03-26T03:26:18.074Z,8.49
2023-03-26T03:28:45.322Z,8.49
2023-03-26T03:31:12.027Z,8.48
2023-03-26T03:33:38.765Z,8.47
2023-03-26T03:36:10.514Z,8.47
2023-03-26T03:38:48.119Z,8.48
2023-03-26T03:41:15.230Z,8.49
2023-03-26T03:43:41.827Z,8.51
2023-03-26T03:46:08.472Z,8.51
2023-03-26T03:48:38.148Z,8.52
2023-03-26T03:51:06.147Z,8.55
2023-03-26T03:53:36.922Z,8.58
2023-03-26T03:56:04.678Z,8.59
2023-03-26T03:58:31.400Z,8.59
2023-03-26T04:01:04.654Z,8.61
2023-03-26T04:03:33.538Z,8.61
2023-03-26T04:06:01.171Z,8.61
2023-03-26T04:08:27.720Z,8.62
2023-03-26T04:10:54.409Z,8.64
2023-03-26T04:13:21.628Z,8.65
2023-03-26T04:15:48.414Z,8.65
2023-03-26T04:18:15.505Z,8.65
2023-03-26T04:20:47.415Z,8.66
2023-03-26T04:23:15.829Z,8.66
2023-03-26T04:25:48.510Z,8.67
2023-03-26T04:28:28.796Z,8.68
2023-03-26T04:31:00.738Z,8.70
2023-03-26T04:33:32.865Z,8.71
2023-03-26T04:36:02.931Z,8.72
2023-03-26T04:38:33.628Z,8.73
2023-03-26T04:41:04.540Z,8.71
2023-03-26T04:43:31.498Z,8.70
2023-03-26T04:45:58.134Z,8.71
2023-03-26T04:48:24.755Z,8.71
2023-03-26T04:50:51.461Z,8.71
2023-03-26T04:53:21.480Z,8.71
2023-03-26T04:55:57.322Z,8.72
2023-03-26T04:58:30.234Z,8.73
2023-03-26T05:00:57.455Z,8.74
2023-03-26T05:03:25.752Z,8.74
2023-03-26T05:05:52.595Z,8.76
2023-03-26T05:08:19.325Z,8.76
2023-03-26T05:10:45.932Z,8.78
2023-03-26T05:13:12.508Z,8.75
2023-03-26T05:15:40.529Z,8.74
2023-03-26T05:18:08.885Z,8.72
2023-03-26T05:20:36.072Z,8.73
2023-03-26T05:23:02.930Z,8.75
2023-03-26T05:25:29.677Z,8.77
2023-03-26T05:27:56.420Z,8.77
2023-03-26T05:30:23.060Z,8.78
2023-03-26T05:32:50.064Z,8.79
2023-03-26T05:35:19.186Z,8.81
2023-03-26T05:37:48.037Z,8.82
2023-03-26T05:40:17.198Z,8.83
2023-03-26T05:42:44.138Z,8.83
2023-03-26T05:45:13.574Z,8.81
2023-03-26T05:47:40.673Z,8.81
2023-03-26T05:50:08.696Z,8.80
2023-03-26T05:52:35.697Z,8.80
2023-03-26T05:55:02.792Z,8.83
2023-03-26T05:57:31.130Z,8.84
2023-03-26T05:59:57.749Z,8.87
2023-03-26T06:02:24.537Z,8.88
2023-03-26T06:04:51.207Z,8.92
2023-03-26T06:07:18.756Z,8.94
2023-03-26T06:09:45.815Z,8.95
2023-03-26T06:12:13.448Z,8.97
2023-03-26T06:14:42.722Z,8.98
2023-03-26T06:17:10.497Z,8.99
2023-03-26T06:19:37.300Z,8.99
2023-03-26T06:22:04.792Z,8.99
2023-03-26T06:24:32.290Z,9.00
2023-03-26T06:26:59.206Z,8.97
2023-03-26T06:29:26.028Z,8.96
2023-03-26T06:31:52.853Z,8.92
2023-03-26T06:34:19.939Z,8.88
2023-03-26T06:36:52.670Z,8.87
2023-03-26T06:39:20.204Z,8.83
2023-03-26T06:41:48.237Z,8.81
2023-03-26T06:44:16.055Z,8.77
2023-03-26T06:46:42.859Z,8.78
2023-03-26T06:49:09.736Z,8.76
2023-03-26T06:51:37.730Z,8.74
2023-03-26T06:54:04.507Z,8.75
2023-03-26T06:56:31.157Z,8.77
2023-03-26T06:58:57.766Z,8.78
2023-03-26T07:01:24.477Z,8.80
2023-03-26T07:03:51.093Z,8.83
2023-03-26T07:06:17.734Z,8.84
2023-03-26T07:08:44.554Z,8.84
2023-03-26T07:11:11.390Z,8.85
2023-03-26T07:13:39.981Z,8.87
2023-03-26T07:16:07.318Z,8.88
2023-03-26T07:18:34.074Z,8.93
2023-03-26T07:21:01.422Z,8.90
2023-03-26T07:23:28.349Z,8.93
2023-03-26T07:25:55.581Z,8.94
2023-03-26T07:29:04.140Z,8.94
2023-03-26T07:32:17.898Z,8.95
2023-03-26T07:35:16.765Z,8.93
2023-03-26T07:37:55.854Z,8.94
2023-03-26T07:40:47.068Z,8.90
2023-03-26T07:43:35.623Z,8.90
2023-03-26T07:46:02.530Z,8.89
2023-03-26T07:48:41.002Z,8.88
2023-03-26T07:51:08.551Z,8.85
2023-03-26T07:53:35.487Z,8.86
2023-03-26T07:56:05.310Z,8.85
2023-03-26T07:59:01.836Z,8.79
2023-03-26T08:01:43.629Z,8.78
2023-03-26T08:04:26.461Z,8.79
2023-03-26T08:07:17.937Z,8.77
2023-03-26T08:10:09.458Z,8.77
2023-03-26T08:12:55.454Z,8.77
2023-03-26T08:15:25.860Z,8.80
2023-03-26T08:18:19.376Z,8.86
2023-03-26T08:20:50.089Z,8.88
2023-03-26T08:23:29.029Z,8.93
2023-03-26T08:26:23.093Z,8.89
2023-03-26T08:29:07.674Z,8.92
2023-03-26T08:31:39.009Z,8.94
2023-03-26T08:34:06.473Z,8.94
2023-03-26T08:36:33.111Z,8.97
2023-03-26T08:38:59.709Z,8.97
2023-03-26T08:41:42.929Z,9.01
2023-03-26T08:44:34.361Z,9.04
2023-03-26T08:47:19.449Z,9.07
2023-03-26T08:50:13.733Z,9.09
2023-03-26T08:52:56.782Z,9.11
2023-03-26T08:55:43.247Z,9.13
2023-03-26T08:58:38.436Z,9.12
2023-03-26T09:01:23.205Z,9.11
2023-03-26T09:04:18.621Z,9.08
2023-03-26T09:06:54.575Z,9.08
2023-03-26T09:10:09.477Z,9.07
2023-03-26T09:13:03.844Z,9.07
2023-03-26T09:15:42.506Z,9.08
2023-03-26T09:18:14.881Z,9.12
2023-03-26T09:20:54.765Z,9.14
2023-03-26T09:23:52.743Z,9.12
2023-03-26T09:26:22.361Z,9.12
2023-03-26T09:29:08.525Z,9.14
2023-03-26T09:31:58.212Z,9.16
2023-03-26T09:34:33.015Z,9.13
2023-03-26T09:37:06.380Z,9.14
2023-03-26T09:39:46.411Z,9.15
2023-03-26T09:42:31.448Z,9.18
2023-03-26T09:45:03.852Z,9.21
2023-03-26T09:47:52.972Z,9.24
2023-03-26T09:50:30.199Z,9.28
2023-03-26T09:53:34.873Z,9.30
2023-03-26T09:56:11.819Z,9.30
2023-03-26T09:58:38.351Z,9.31
2023-03-26T10:01:26.249Z,9.31
2023-03-26T10:04:11.161Z,9.32
2023-03-26T10:07:32.039Z,9.34
2023-03-26T10:10:13.386Z,9.36
2023-03-26T10:12:43.537Z,9.38
2023-03-26T10:15:25.469Z,9.43
2023-03-26T10:18:26.752Z,9.38
2023-03-26T10:21:14.238Z,9.39
2023-03-26T10:24:14.389Z,9.39
2023-03-26T10:27:09.348Z,9.40
2023-03-26T10:29:57.658Z,9.32
2023-03-26T10:32:24.266Z,9.31
2023-03-26T10:35:16.710Z,9.34
2023-03-26T10:38:06.280Z,9.33
2023-03-26T10:40:54.968Z,9.35
2023-03-26T10:43:46.407Z,9.38
2023-03-26T10:46:21.687Z,9.39
2023-03-26T10:49:26.866Z,9.43
2023-03-26T10:51:58.948Z,9.42
2023-03-26T10:54:46.543Z,9.44
2023-03-26T10:57:22.342Z,9.41
2023-03-26T10:59:48.951Z,9.41
2023-03-26T11:02:30.491Z,9.42
2023-03-26T11:05:29.724Z,9.34
2023-03-26T11:08:06.637Z,9.31
2023-03-26T11:11:20.701Z,9.32
2023-03-26T11:14:07.055Z,9.36
2023-03-26T11:16:42.461Z,9.35
2023-03-26T11:19:14.988Z,9.38
2023-03-26T11:21:48.586Z,9.44
2023-03-26T11:24:45.433Z,9.50
2023-03-26T11:27:17.438Z,9.53
2023-03-26T11:30:03.445Z,9.55
2023-03-26T11:33:02.720Z,9.57
2023-03-26T11:35:39.679Z,9.54
2023-03-26T11:38:37.545Z,9.58
2023-03-26T11:41:13.139Z,9.61
2023-03-26T11:43:39.640Z,9.59
2023-03-26T11:46:12.095Z,9.62
2023-03-26T11:48:57.653Z,9.58
2023-03-26T11:51:36.865Z,9.62
2023-03-26T11:54:05.607Z,9.63
2023-03-26T11:56:41.220Z,9.64
2023-03-26T11:59:45.119Z,9.67
2023-03-26T12:02:29.877Z,9.68
2023-03-26T12:05:18.571Z,9.71
2023-03-26T12:07:59.725Z,9.78
2023-03-26T12:10:39.661Z,9.78
2023-03-26T12:13:29.036Z,9.78
2023-03-26T12:16:05.863Z,9.78
2023-03-26T12:18:32.778Z,9.81
2023-03-26T12:21:08.549Z,9.74
2023-03-26T12:23:42.644Z,9.73
2023-03-26T12:26:20.820Z,9.79
2023-03-26T12:28:51.170Z,9.95
2023-03-26T12:31:19.656Z,10.01
2023-03-26T12:34:04.355Z,10.09
2023-03-26T12:36:35.913Z,10.18
2023-03-26T12:40:09.178Z,10.33
2023-03-26T12:44:49.666Z,10.39
2023-03-26T12:45:29.869Z,10.30
2023-03-26T12:48:03.524Z,10.24
2023-03-26T12:51:12.730Z,10.18
2023-03-26T12:53:50.525Z,10.19
2023-03-26T12:56:38.537Z,10.17
2023-03-26T12:59:39.648Z,10.22
2023-03-26T13:02:44.063Z,10.27
2023-03-26T13:05:29.605Z,10.34
2023-03-26T13:08:50.670Z,10.30
2023-03-26T13:11:38.100Z,10.28
2023-03-26T13:14:30.883Z,10.31
2023-03-26T13:17:18.374Z,10.30
2023-03-26T13:19:51.609Z,10.28
2023-03-26T13:22:46.608Z,10.32
2023-03-26T13:25:18.882Z,10.41
2023-03-26T13:27:54.581Z,10.45
2023-03-26T13:30:44.763Z,10.56
2023-03-26T13:33:30.369Z,10.60
2023-03-26T13:36:25.133Z,10.67
2023-03-26T13:39:16.313Z,10.63
2023-03-26T13:41:51.230Z,10.63
2023-03-26T13:44:32.708Z,10.66
2023-03-26T13:47:09.548Z,10.64
2023-03-26T13:49:56.777Z,10.54
2023-03-26T13:52:23.353Z,10.46
2023-03-26T13:54:55.288Z,10.41
2023-03-26T13:57:29.983Z,10.28
2023-03-26T14:00:12.703Z,10.19
2023-03-26T14:02:41.665Z,10.25
2023-03-26T14:05:30.521Z,10.19
2023-03-26T14:08:05.886Z,10.30
2023-03-26T14:10:38.696Z,10.29
2023-03-26T14:13:16.351Z,10.26
2023-03-26T14:15:56.155Z,10.15
2023-03-26T14:18:22.890Z,10.11
2023-03-26T14:21:13.281Z,10.15
2023-03-26T14:24:17.801Z,10.25
2023-03-26T14:27:15.667Z,10.31
2023-03-26T14:29:59.520Z,10.25
2023-03-26T14:32:52.371Z,10.22
2023-03-26T14:35:46.584Z,10.23
2023-03-26T14:38:42.781Z,10.21
2023-03-26T14:41:29.529Z,10.20
2023-03-26T14:44:27.499Z,10.24
2023-03-26T14:47:20.582Z,10.31
2023-03-26T14:50:21.630Z,10.20
2023-03-26T14:52:52.287Z,10.09
2023-03-26T14:55:48.530Z,10.04
2023-03-26T14:58:44.170Z,9.99
2023-03-26T15:01:27.629Z,9.84
2023-03-26T15:04:35.288Z,9.68
2023-03-26T15:07:11.143Z,9.72
2023-03-26T15:10:15.163Z,9.75
2023-03-26T15:13:20.422Z,9.64
2023-03-26T15:16:17.843Z,9.73
2023-03-26T15:19:17.725Z,9.83
2023-03-26T15:22:13.227Z,9.86
2023-03-26T15:25:04.671Z,9.78
2023-03-26T15:28:00.169Z,9.78
2023-03-26T15:30:48.663Z,9.74
2023-03-26T15:33:39.255Z,9.67
2023-03-26T15:36:24.090Z,9.51
2023-03-26T15:39:15.646Z,9.35
2023-03-26T15:41:52.085Z,9.31
2023-03-26T15:44:28.557Z,9.25
2023-03-26T15:47:13.897Z,9.22
2023-03-26T15:49:45.706Z,9.13
2023-03-26T15:52:29.701Z,9.11
2023-03-26T15:55:08.568Z,9.07
2023-03-26T15:58:18.367Z,9.12
2023-03-26T16:01:26.718Z,9.08
2023-03-26T16:04:32.611Z,9.11
2023-03-26T16:07:43.925Z,9.12
2023-03-26T16:10:56.051Z,8.99
2023-03-26T16:13:33.993Z,8.95
2023-03-26T16:16:04.110Z,8.95
2023-03-26T16:18:42.203Z,8.86
2023-03-26T16:21:32.351Z,8.83
2023-03-26T16:24:02.689Z,8.83
2023-03-26T16:26:44.690Z,8.80
2023-03-26T16:29:14.506Z,8.78
2023-03-26T16:32:04.722Z,8.79
2023-03-26T16:34:52.927Z,8.81
2023-03-26T16:38:09.153Z,8.78
2023-03-26T16:40:49.062Z,8.73
2023-03-26T16:43:41.855Z,8.67
2023-03-26T16:46:15.436Z,8.65
2023-03-26T16:49:00.678Z,8.58
2023-03-26T16:51:43.252Z,8.61
2023-03-26T16:54:18.817Z,8.59
2023-03-26T16:57:01.176Z,8.56
2023-03-26T16:59:43.074Z,8.51
2023-03-26T17:02:17.119Z,8.47
2023-03-26T17:04:47.585Z,8.47
2023-03-26T17:07:37.409Z,8.41
2023-03-26T17:10:36.452Z,8.33
2023-03-26T17:13:16.795Z,8.23
2023-03-26T17:16:29.280Z,8.27
2023-03-26T17:19:09.255Z,8.19
2023-03-26T17:22:01.586Z,8.17
2023-03-26T17:24:54.066Z,8.12
2023-03-26T17:27:30.869Z,8.09
2023-03-26T17:30:03.706Z,7.99
2023-03-26T17:32:55.434Z,7.97
2023-03-26T17:35:49.595Z,7.90
2023-03-26T17:38:25.023Z,7.90
2023-03-26T17:40:56.051Z,7.87
2023-03-26T17:43:38.002Z,7.86
2023-03-26T17:46:24.953Z,7.87
2023-03-26T17:49:17.349Z,7.84
2023-03-26T17:52:05.953Z,7.78
2023-03-26T17:54:44.439Z,7.72
2023-03-26T17:57:21.490Z,7.66
2023-03-26T17:59:50.614Z,7.57
2023-03-26T18:02:22.025Z,7.49
2023-03-26T18:04:54.495Z,7.39
2023-03-26T18:08:02.904Z,7.38
2023-03-26T18:10:42.265Z,7.29
2023-03-26T18:13:15.788Z,7.19
2023-03-26T18:15:51.559Z,7.09
2023-03-26T18:18:36.825Z,7.03
2023-03-26T18:21:08.954Z,7.00
2023-03-26T18:23:38.949Z,6.88
2023-03-26T18:26:13.782Z,6.86
2023-03-26T18:28:43.707Z,6.81
2023-03-26T18:31:22.663Z,6.72
2023-03-26T18:33:54.784Z,6.68
2023-03-26T18:36:24.630Z,6.62
2023-03-26T18:38:56.078Z,6.56
2023-03-26T18:41:33.089Z,6.55
2023-03-26T18:44:04.497Z,6.51
2023-03-26T18:46:33.368Z,6.46
2023-03-26T18:49:01.298Z,6.42
2023-03-26T18:51:29.492Z,6.36
2023-03-26T18:54:01.998Z,6.32
2023-03-26T18:56:28.919Z,6.29
2023-03-26T18:58:58.801Z,6.23
2023-03-26T19:01:31.092Z,6.19
2023-03-26T19:04:02.167Z,6.13
2023-03-26T19:06:29.839Z,6.09
2023-03-26T19:08:58.914Z,6.06
2023-03-26T19:11:26.584Z,6.03
2023-03-26T19:14:06.836Z,5.99
2023-03-26T19:16:36.638Z,5.98
2023-03-26T19:19:06.847Z,5.94
2023-03-26T19:21:35.771Z,5.92
2023-03-26T19:24:04.158Z,5.85
2023-03-26T19:26:31.663Z,5.81
2023-03-26T19:28:59.092Z,5.81
2023-03-26T19:31:37.164Z,5.77
2023-03-26T19:34:14.059Z,5.73
2023-03-26T19:36:58.374Z,5.69
2023-03-26T19:39:37.277Z,5.63
2023-03-26T19:42:06.595Z,5.58
2023-03-26T19:44:33.688Z,5.55
2023-03-26T19:47:08.870Z,5.54
2023-03-26T19:49:48.467Z,5.51
2023-03-26T19:52:20.879Z,5.47
2023-03-26T19:55:00.310Z,5.42
2023-03-26T19:57:32.227Z,5.41
2023-03-26T19:59:59.629Z,5.34
2023-03-26T20:02:27.457Z,5.31
2023-03-26T20:04:54.305Z,5.26
2023-03-26T20:07:35.643Z,5.21
2023-03-26T20:10:05.677Z,5.17
2023-03-26T20:12:33.051Z,5.13
2023-03-26T20:15:01.912Z,5.11
2023-03-26T20:17:31.457Z,5.09
2023-03-26T20:19:58.648Z,5.07
2023-03-26T20:22:26.735Z,5.05
2023-03-26T20:24:54.821Z,5.03
2023-03-26T20:27:22.451Z,5.01
2023-03-26T20:29:49.266Z,5.00
2023-03-26T20:32:27.286Z,5.00
2023-03-26T20:34:54.620Z,5.01
2023-03-26T20:37:21.767Z,5.01
2023-03-26T20:39:50.123Z,5.01
2023-03-26T20:42:17.237Z,5.02
2023-03-26T20:44:43.994Z,5.00
2023-03-26T20:47:11.781Z,5.01
2023-03-26T20:49:40.346Z,5.00
2023-03-26T20:52:07.201Z,4.95
2023-03-26T20:54:33.889Z,4.98
2023-03-26T20:57:00.649Z,4.95
2023-03-26T20:59:28.343Z,4.95
2023-03-26T21:01:57.912Z,4.93
2023-03-26T21:04:26.319Z,4.92
2023-03-26T21:06:55.662Z,4.90
2023-03-26T21:09:35.474Z,4.87
2023-03-26T21:12:08.400Z,4.83
2023-03-26T21:14:42.426Z,4.79
2023-03-26T21:17:18.589Z,4.75
2023-03-26T21:19:46.150Z,4.73
2023-03-26T21:22:37.794Z,4.70
2023-03-26T21:25:22.833Z,4.63
2023-03-26T21:28:08.378Z,4.61
2023-03-26T21:30:36.126Z,4.60
2023-03-26T21:33:05.706Z,4.59
2023-03-26T21:35:42.094Z,4.59
2023-03-26T21:38:09.960Z,4.58
2023-03-26T21:40:39.027Z,4.55
2023-03-26T21:43:07.481Z,4.49
2023-03-26T21:45:34.336Z,4.49
2023-03-26T21:48:01.817Z,4.44
2023-03-26T21:50:28.842Z,4.39
2023-03-26T21:52:57.859Z,4.35
2023-03-26T21:55:24.859Z,4.33
2023-03-26T21:58:04.174Z,4.30
2023-03-26T22:00:49.313Z,4.28
2023-03-26T22:03:16.101Z,4.23
2023-03-26T22:05:57.528Z,4.18
2023-03-26T22:08:50.558Z,4.15
2023-03-26T22:11:17.195Z,4.14
2023-03-26T22:13:43.719Z,4.13
2023-03-26T22:16:10.818Z,4.11
2023-03-26T22:18:37.745Z,4.08
2023-03-26T22:21:04.842Z,4.06
2023-03-26T22:23:34.409Z,4.03
2023-03-26T22:26:01.121Z,4.01
2023-03-26T22:28:27.783Z,3.97
2023-03-26T22:30:54.652Z,3.96
2023-03-26T22:33:21.643Z,3.93
2023-03-26T22:35:48.255Z,3.90
2023-03-26T22:38:16.954Z,3.89
2023-03-26T22:40:43.570Z,3.87
2023-03-26T22:43:11.500Z,3.87
2023-03-26T22:45:38.162Z,3.89
2023-03-26T22:48:05.115Z,3.87
2023-03-26T22:50:32.908Z,3.88
2023-03-26T22:52:59.638Z,3.91
2023-03-26T22:55:28.198Z,3.94
2023-03-26T22:57:55.760Z,3.96
2023-03-26T23:00:22.572Z,3.96
2023-03-26T23:02:50.066Z,3.95
2023-03-26T23:05:19.933Z,3.94
2023-03-26T23:07:47.341Z,3.92
2023-03-26T23:10:14.026Z,3.95
2023-03-26T23:12:41.622Z,3.95
2023-03-26T23:15:09.709Z,3.95
2023-03-26T23:17:37.941Z,3.95
2023-03-26T23:20:12.532Z,3.93
2023-03-26T23:22:39.157Z,3.91
2023-03-26T23:25:06.743Z,3.88
2023-03-26T23:27:35.871Z,3.84
2023-03-26T23:30:04.269Z,3.79
2023-03-26T23:32:31.233Z,3.74
2023-03-26T23:34:57.957Z,3.68
2023-03-26T23:37:24.755Z,3.63
2023-03-26T23:39:53.690Z,3.60
2023-03-26T23:42:29.205Z,3.55
2023-03-26T23:44:57.113Z,3.52
2023-03-26T23:47:24.206Z,3.52
2023-03-26T23:49:51.016Z,3.48
2023-03-26T23:52:17.778Z,3.44
2023-03-26T23:54:45.068Z,3.40
2023-03-26T23:57:11.969Z,3.38
2023-03-26T23:59:38.869Z,3.33
